sensor_id;sensor_type;location;lat;lon;timestamp;temperature;humidity
71096;DHT22;58753;49.440;11.126;2022-12-18T00:01:47;-12.01;89.16
71096;DHT22;58753;49.440;11.126;2022-12-18T00:04:24;-11.99;89.35
71096;DHT22;58753;49.440;11.126;2022-12-18T00:06:49;-12.01;89.42
71096;DHT22;58753;49.440;11.126;2022-12-18T00:09:15;-12.02;89.44
71096;DHT22;58753;49.440;11.126;2022-12-18T00:11:40;-12.02;89.27
71096;DHT22;58753;49.440;11.126;2022-12-18T00:14:06;-12.05;89.35
71096;DHT22;58753;49.440;11.126;2022-12-18T00:16:31;-12.05;89.39
71096;DHT22;58753;49.440;11.126;2022-12-18T00:18:58;-12.06;89.42
71096;DHT22;58753;49.440;11.126;2022-12-18T00:21:25;-12.08;89.36
71096;DHT22;58753;49.440;11.126;2022-12-18T00:23:51;-12.12;89.14
71096;DHT22;58753;49.440;11.126;2022-12-18T00:26:22;-12.23;88.80
71096;DHT22;58753;49.440;11.126;2022-12-18T00:28:48;-12.26;89.24
71096;DHT22;58753;49.440;11.126;2022-12-18T00:31:16;-12.30;89.11
71096;DHT22;58753;49.440;11.126;2022-12-18T00:33:42;-12.32;89.19
71096;DHT22;58753;49.440;11.126;2022-12-18T00:36:16;-12.34;89.16
71096;DHT22;58753;49.440;11.126;2022-12-18T00:38:42;-12.37;89.24
71096;DHT22;58753;49.440;11.126;2022-12-18T00:41:09;-12.50;88.68
71096;DHT22;58753;49.440;11.126;2022-12-18T00:43:36;-12.59;88.75
71096;DHT22;58753;49.440;11.126;2022-12-18T00:46:02;-12.66;88.81
71096;DHT22;58753;49.440;11.126;2022-12-18T00:48:27;-12.71;89.07
71096;DHT22;58753;49.440;11.126;2022-12-18T00:50:53;-12.67;89.37
71096;DHT22;58753;49.440;11.126;2022-12-18T00:53:18;-12.60;89.65
71096;DHT22;58753;49.440;11.126;2022-12-18T00:55:44;-12.53;89.53
71096;DHT22;58753;49.440;11.126;2022-12-18T00:58:11;-12.50;89.49
71096;DHT22;58753;49.440;11.126;2022-12-18T01:00:37;-12.50;89.33
71096;DHT22;58753;49.440;11.126;2022-12-18T01:03:03;-12.63;88.69
71096;DHT22;58753;49.440;11.126;2022-12-18T01:05:29;-12.70;88.96
71096;DHT22;58753;49.440;11.126;2022-12-18T01:07:55;-12.71;89.23
71096;DHT22;58753;49.440;11.126;2022-12-18T01:10:21;-12.70;89.09
71096;DHT22;58753;49.440;11.126;2022-12-18T01:12:47;-12.84;88.73
71096;DHT22;58753;49.440;11.126;2022-12-18T01:15:14;-12.83;89.08
71096;DHT22;58753;49.440;11.126;2022-12-18T01:17:40;-12.81;89.29
71096;DHT22;58753;49.440;11.126;2022-12-18T01:20:05;-12.77;89.42
71096;DHT22;58753;49.440;11.126;2022-12-18T01:22:35;-12.77;89.28
71096;DHT22;58753;49.440;11.126;2022-12-18T01:25:01;-12.75;89.16
71096;DHT22;58753;49.440;11.126;2022-12-18T01:27:26;-12.77;89.26
71096;DHT22;58753;49.440;11.126;2022-12-18T01:29:51;-12.81;89.19
71096;DHT22;58753;49.440;11.126;2022-12-18T01:32:17;-12.80;89.31
71096;DHT22;58753;49.440;11.126;2022-12-18T01:34:42;-12.80;89.14
71096;DHT22;58753;49.440;11.126;2022-12-18T01:37:08;-12.84;89.10
71096;DHT22;58753;49.440;11.126;2022-12-18T01:39:33;-12.84;89.12
71096;DHT22;58753;49.440;11.126;2022-12-18T01:42:00;-12.85;89.08
71096;DHT22;58753;49.440;11.126;2022-12-18T01:47:46;-12.91;88.97
71096;DHT22;58753;49.440;11.126;2022-12-18T01:52:45;-12.97;88.90
71096;DHT22;58753;49.440;11.126;2022-12-18T01:55:12;-12.97;88.99
71096;DHT22;58753;49.440;11.126;2022-12-18T01:57:39;-13.02;88.91
71096;DHT22;58753;49.440;11.126;2022-12-18T02:00:12;-13.05;88.65
71096;DHT22;58753;49.440;11.126;2022-12-18T02:02:38;-13.14;88.54
71096;DHT22;58753;49.440;11.126;2022-12-18T02:05:04;-13.19;88.61
71096;DHT22;58753;49.440;11.126;2022-12-18T02:11:27;-13.18;89.06
71096;DHT22;58753;49.440;11.126;2022-12-18T02:14:00;-13.14;89.11
71096;DHT22;58753;49.440;11.126;2022-12-18T02:22:07;-13.16;88.97
71096;DHT22;58753;49.440;11.126;2022-12-18T02:27:10;-13.15;89.15
71096;DHT22;58753;49.440;11.126;2022-12-18T02:29:48;-13.11;89.16
71096;DHT22;58753;49.440;11.126;2022-12-18T02:32:18;-13.12;89.01
71096;DHT22;58753;49.440;11.126;2022-12-18T02:34:45;-13.14;88.90
71096;DHT22;58753;49.440;11.126;2022-12-18T02:37:14;-13.20;88.64
71096;DHT22;58753;49.440;11.126;2022-12-18T02:39:43;-13.20;88.81
71096;DHT22;58753;49.440;11.126;2022-12-18T02:42:10;-13.25;88.75
71096;DHT22;58753;49.440;11.126;2022-12-18T02:44:44;-13.26;88.79
71096;DHT22;58753;49.440;11.126;2022-12-18T02:47:11;-13.28;89.05
71096;DHT22;58753;49.440;11.126;2022-12-18T02:52:47;-13.25;89.06
71096;DHT22;58753;49.440;11.126;2022-12-18T02:57:58;-13.23;89.16
71096;DHT22;58753;49.440;11.126;2022-12-18T03:00:37;-13.19;89.08
71096;DHT22;58753;49.440;11.126;2022-12-18T03:05:43;-13.02;89.24
71096;DHT22;58753;49.440;11.126;2022-12-18T03:08:20;-12.91;89.23
71096;DHT22;58753;49.440;11.126;2022-12-18T03:11:08;-12.77;89.36
71096;DHT22;58753;49.440;11.126;2022-12-18T03:13:37;-12.68;89.40
71096;DHT22;58753;49.440;11.126;2022-12-18T03:16:06;-12.59;89.22
71096;DHT22;58753;49.440;11.126;2022-12-18T03:21:05;-12.40;89.03
71096;DHT22;58753;49.440;11.126;2022-12-18T03:23:35;-12.33;89.06
71096;DHT22;58753;49.440;11.126;2022-12-18T03:26:07;-12.25;89.10
71096;DHT22;58753;49.440;11.126;2022-12-18T03:28:38;-12.11;89.29
71096;DHT22;58753;49.440;11.126;2022-12-18T03:31:07;-12.02;89.06
71096;DHT22;58753;49.440;11.126;2022-12-18T03:33:43;-11.93;89.00
71096;DHT22;58753;49.440;11.126;2022-12-18T03:36:11;-11.79;89.14
71096;DHT22;58753;49.440;11.126;2022-12-18T03:38:36;-11.68;89.46
71096;DHT22;58753;49.440;11.126;2022-12-18T03:43:56;-11.40;89.34
71096;DHT22;58753;49.440;11.126;2022-12-18T03:46:29;-11.30;89.26
71096;DHT22;58753;49.440;11.126;2022-12-18T03:51:59;-11.04;89.37
71096;DHT22;58753;49.440;11.126;2022-12-18T03:54:26;-10.95;89.47
71096;DHT22;58753;49.440;11.126;2022-12-18T03:57:01;-10.85;89.32
71096;DHT22;58753;49.440;11.126;2022-12-18T03:59:28;-10.72;89.28
71096;DHT22;58753;49.440;11.126;2022-12-18T04:01:56;-10.62;89.37
71096;DHT22;58753;49.440;11.126;2022-12-18T04:04:24;-10.53;89.48
71096;DHT22;58753;49.440;11.126;2022-12-18T04:06:51;-10.48;89.33
71096;DHT22;58753;49.440;11.126;2022-12-18T04:09:18;-10.37;89.43
71096;DHT22;58753;49.440;11.126;2022-12-18T04:11:46;-10.30;89.47
71096;DHT22;58753;49.440;11.126;2022-12-18T04:14:11;-10.20;89.46
71096;DHT22;58753;49.440;11.126;2022-12-18T04:16:37;-10.10;89.55
71096;DHT22;58753;49.440;11.126;2022-12-18T04:19:03;-10.03;89.45
71096;DHT22;58753;49.440;11.126;2022-12-18T04:21:28;-9.94;89.54
71096;DHT22;58753;49.440;11.126;2022-12-18T04:23:54;-9.84;89.59
71096;DHT22;58753;49.440;11.126;2022-12-18T04:26:19;-9.77;89.63
71096;DHT22;58753;49.440;11.126;2022-12-18T04:28:45;-9.67;89.67
71096;DHT22;58753;49.440;11.126;2022-12-18T04:31:10;-9.60;89.70
71096;DHT22;58753;49.440;11.126;2022-12-18T04:33:36;-9.50;89.77
71096;DHT22;58753;49.440;11.126;2022-12-18T04:36:02;-9.43;89.80
71096;DHT22;58753;49.440;11.126;2022-12-18T04:38:27;-9.32;89.78
71096;DHT22;58753;49.440;11.126;2022-12-18T04:40:53;-9.25;89.86
71096;DHT22;58753;49.440;11.126;2022-12-18T04:43:18;-9.16;89.90
71096;DHT22;58753;49.440;11.126;2022-12-18T04:45:43;-9.09;89.89
71096;DHT22;58753;49.440;11.126;2022-12-18T04:48:09;-9.01;89.87
71096;DHT22;58753;49.440;11.126;2022-12-18T04:50:34;-8.92;89.92
71096;DHT22;58753;49.440;11.126;2022-12-18T04:53:00;-8.87;90.01
71096;DHT22;58753;49.440;11.126;2022-12-18T04:55:25;-8.79;90.04
71096;DHT22;58753;49.440;11.126;2022-12-18T04:57:51;-8.76;89.96
71096;DHT22;58753;49.440;11.126;2022-12-18T05:00:16;-8.65;90.09
71096;DHT22;58753;49.440;11.126;2022-12-18T05:02:42;-8.58;90.08
71096;DHT22;58753;49.440;11.126;2022-12-18T05:05:08;-8.54;90.09
71096;DHT22;58753;49.440;11.126;2022-12-18T05:07:33;-8.50;90.12
71096;DHT22;58753;49.440;11.126;2022-12-18T05:09:58;-8.46;90.14
71096;DHT22;58753;49.440;11.126;2022-12-18T05:12:24;-8.39;90.16
71096;DHT22;58753;49.440;11.126;2022-12-18T05:14:49;-8.33;90.20
71096;DHT22;58753;49.440;11.126;2022-12-18T05:17:15;-8.30;90.18
71096;DHT22;58753;49.440;11.126;2022-12-18T05:19:40;-8.23;90.16
71096;DHT22;58753;49.440;11.126;2022-12-18T05:22:06;-8.19;90.22
71096;DHT22;58753;49.440;11.126;2022-12-18T05:24:32;-8.12;90.31
71096;DHT22;58753;49.440;11.126;2022-12-18T05:26:57;-8.06;90.37
71096;DHT22;58753;49.440;11.126;2022-12-18T05:29:23;-8.02;90.33
71096;DHT22;58753;49.440;11.126;2022-12-18T05:31:48;-7.98;90.26
71096;DHT22;58753;49.440;11.126;2022-12-18T05:34:14;-7.92;90.29
71096;DHT22;58753;49.440;11.126;2022-12-18T05:36:39;-7.88;90.33
71096;DHT22;58753;49.440;11.126;2022-12-18T05:39:04;-7.84;90.31
71096;DHT22;58753;49.440;11.126;2022-12-18T05:41:30;-7.78;90.33
71096;DHT22;58753;49.440;11.126;2022-12-18T05:43:55;-7.74;90.38
71096;DHT22;58753;49.440;11.126;2022-12-18T05:46:20;-7.71;90.42
71096;DHT22;58753;49.440;11.126;2022-12-18T05:48:46;-7.64;90.40
71096;DHT22;58753;49.440;11.126;2022-12-18T05:51:15;-7.61;90.43
71096;DHT22;58753;49.440;11.126;2022-12-18T05:53:41;-7.55;90.53
71096;DHT22;58753;49.440;11.126;2022-12-18T05:56:12;-7.50;90.56
71096;DHT22;58753;49.440;11.126;2022-12-18T05:58:38;-7.44;90.58
71096;DHT22;58753;49.440;11.126;2022-12-18T06:01:17;-7.40;90.59
71096;DHT22;58753;49.440;11.126;2022-12-18T06:03:43;-7.33;90.63
71096;DHT22;58753;49.440;11.126;2022-12-18T06:06:23;-7.27;90.62
71096;DHT22;58753;49.440;11.126;2022-12-18T06:08:50;-7.21;90.69
71096;DHT22;58753;49.440;11.126;2022-12-18T06:11:19;-7.16;90.73
71096;DHT22;58753;49.440;11.126;2022-12-18T06:13:45;-7.10;90.72
71096;DHT22;58753;49.440;11.126;2022-12-18T06:16:10;-7.07;90.68
71096;DHT22;58753;49.440;11.126;2022-12-18T06:18:36;-7.03;90.67
71096;DHT22;58753;49.440;11.126;2022-12-18T06:21:03;-6.97;90.68
71096;DHT22;58753;49.440;11.126;2022-12-18T06:23:28;-6.97;90.65
71096;DHT22;58753;49.440;11.126;2022-12-18T06:25:53;-6.92;90.69
71096;DHT22;58753;49.440;11.126;2022-12-18T06:28:19;-6.90;90.72
71096;DHT22;58753;49.440;11.126;2022-12-18T06:30:46;-6.85;90.76
71096;DHT22;58753;49.440;11.126;2022-12-18T06:33:12;-6.86;90.65
71096;DHT22;58753;49.440;11.126;2022-12-18T06:35:37;-6.82;90.64
71096;DHT22;58753;49.440;11.126;2022-12-18T06:38:03;-6.79;90.68
71096;DHT22;58753;49.440;11.126;2022-12-18T06:40:28;-6.78;90.66
71096;DHT22;58753;49.440;11.126;2022-12-18T06:42:54;-6.76;90.71
71096;DHT22;58753;49.440;11.126;2022-12-18T06:45:19;-6.78;90.70
71096;DHT22;58753;49.440;11.126;2022-12-18T06:47:45;-6.72;90.78
71096;DHT22;58753;49.440;11.126;2022-12-18T06:50:10;-6.69;90.80
71096;DHT22;58753;49.440;11.126;2022-12-18T06:52:36;-6.66;90.87
71096;DHT22;58753;49.440;11.126;2022-12-18T06:55:02;-6.65;90.82
71096;DHT22;58753;49.440;11.126;2022-12-18T06:57:29;-6.61;90.84
71096;DHT22;58753;49.440;11.126;2022-12-18T06:59:54;-6.59;90.87
71096;DHT22;58753;49.440;11.126;2022-12-18T07:02:20;-6.53;90.90
71096;DHT22;58753;49.440;11.126;2022-12-18T07:04:45;-6.55;90.94
71096;DHT22;58753;49.440;11.126;2022-12-18T07:07:10;-6.50;90.90
71096;DHT22;58753;49.440;11.126;2022-12-18T07:09:36;-6.49;90.90
71096;DHT22;58753;49.440;11.126;2022-12-18T07:12:01;-6.42;90.92
71096;DHT22;58753;49.440;11.126;2022-12-18T07:14:27;-6.42;90.90
71096;DHT22;58753;49.440;11.126;2022-12-18T07:16:52;-6.41;90.93
71096;DHT22;58753;49.440;11.126;2022-12-18T07:19:17;-6.38;90.97
71096;DHT22;58753;49.440;11.126;2022-12-18T07:21:43;-6.37;90.96
71096;DHT22;58753;49.440;11.126;2022-12-18T07:24:08;-6.31;91.04
71096;DHT22;58753;49.440;11.126;2022-12-18T07:26:33;-6.27;91.13
71096;DHT22;58753;49.440;11.126;2022-12-18T07:28:59;-6.21;91.17
71096;DHT22;58753;49.440;11.126;2022-12-18T07:31:25;-6.14;91.29
71096;DHT22;58753;49.440;11.126;2022-12-18T07:33:51;-6.05;91.38
71096;DHT22;58753;49.440;11.126;2022-12-18T07:36:17;-5.97;91.40
71096;DHT22;58753;49.440;11.126;2022-12-18T07:38:42;-5.91;91.32
71096;DHT22;58753;49.440;11.126;2022-12-18T07:41:12;-5.86;91.33
71096;DHT22;58753;49.440;11.126;2022-12-18T07:43:39;-5.79;91.23
71096;DHT22;58753;49.440;11.126;2022-12-18T07:46:05;-5.77;91.30
71096;DHT22;58753;49.440;11.126;2022-12-18T07:48:30;-5.72;91.31
71096;DHT22;58753;49.440;11.126;2022-12-18T07:51:00;-5.66;91.26
71096;DHT22;58753;49.440;11.126;2022-12-18T07:53:26;-5.62;91.31
71096;DHT22;58753;49.440;11.126;2022-12-18T07:55:58;-5.56;91.31
71096;DHT22;58753;49.440;11.126;2022-12-18T07:58:24;-5.49;91.26
71096;DHT22;58753;49.440;11.126;2022-12-18T08:00:50;-5.42;91.43
71096;DHT22;58753;49.440;11.126;2022-12-18T08:03:15;-5.35;91.48
71096;DHT22;58753;49.440;11.126;2022-12-18T08:05:41;-5.29;91.51
71096;DHT22;58753;49.440;11.126;2022-12-18T08:08:06;-5.21;91.53
71096;DHT22;58753;49.440;11.126;2022-12-18T08:10:32;-5.16;91.51
71096;DHT22;58753;49.440;11.126;2022-12-18T08:12:57;-5.07;91.54
71096;DHT22;58753;49.440;11.126;2022-12-18T08:15:22;-4.99;91.46
71096;DHT22;58753;49.440;11.126;2022-12-18T08:17:48;-4.94;91.44
71096;DHT22;58753;49.440;11.126;2022-12-18T08:20:13;-4.84;91.52
71096;DHT22;58753;49.440;11.126;2022-12-18T08:22:43;-4.78;91.48
71096;DHT22;58753;49.440;11.126;2022-12-18T08:25:09;-4.71;91.26
71096;DHT22;58753;49.440;11.126;2022-12-18T08:27:34;-4.73;91.24
71096;DHT22;58753;49.440;11.126;2022-12-18T08:30:00;-4.68;91.27
71096;DHT22;58753;49.440;11.126;2022-12-18T08:32:27;-4.57;91.43
71096;DHT22;58753;49.440;11.126;2022-12-18T08:34:53;-4.57;91.27
71096;DHT22;58753;49.440;11.126;2022-12-18T08:37:18;-4.53;91.28
71096;DHT22;58753;49.440;11.126;2022-12-18T08:39:43;-4.44;91.42
71096;DHT22;58753;49.440;11.126;2022-12-18T08:42:09;-4.34;91.33
71096;DHT22;58753;49.440;11.126;2022-12-18T08:44:53;-4.32;91.10
71096;DHT22;58753;49.440;11.126;2022-12-18T08:47:19;-4.29;91.06
71096;DHT22;58753;49.440;11.126;2022-12-18T08:49:44;-4.24;90.91
71096;DHT22;58753;49.440;11.126;2022-12-18T08:52:09;-4.19;91.01
71096;DHT22;58753;49.440;11.126;2022-12-18T08:54:35;-4.13;90.93
71096;DHT22;58753;49.440;11.126;2022-12-18T08:57:00;-4.13;90.90
71096;DHT22;58753;49.440;11.126;2022-12-18T08:59:28;-4.07;90.83
71096;DHT22;58753;49.440;11.126;2022-12-18T09:01:54;-4.03;90.58
71096;DHT22;58753;49.440;11.126;2022-12-18T09:04:20;-3.98;90.84
71096;DHT22;58753;49.440;11.126;2022-12-18T09:06:45;-3.95;90.78
71096;DHT22;58753;49.440;11.126;2022-12-18T09:09:11;-3.91;90.49
71096;DHT22;58753;49.440;11.126;2022-12-18T09:11:36;-3.85;90.56
71096;DHT22;58753;49.440;11.126;2022-12-18T09:14:02;-3.83;90.22
71096;DHT22;58753;49.440;11.126;2022-12-18T09:16:28;-3.77;90.09
71096;DHT22;58753;49.440;11.126;2022-12-18T09:18:55;-3.78;89.52
71096;DHT22;58753;49.440;11.126;2022-12-18T09:21:25;-3.79;89.60
71096;DHT22;58753;49.440;11.126;2022-12-18T09:23:51;-3.70;90.09
71096;DHT22;58753;49.440;11.126;2022-12-18T09:26:17;-3.60;90.06
71096;DHT22;58753;49.440;11.126;2022-12-18T09:28:43;-3.60;89.58
71096;DHT22;58753;49.440;11.126;2022-12-18T09:31:10;-3.55;89.12
71096;DHT22;58753;49.440;11.126;2022-12-18T09:33:39;-3.55;89.12
71096;DHT22;58753;49.440;11.126;2022-12-18T09:36:06;-3.60;88.66
71096;DHT22;58753;49.440;11.126;2022-12-18T09:38:33;-3.72;88.39
71096;DHT22;58753;49.440;11.126;2022-12-18T09:43:50;-3.74;88.35
71096;DHT22;58753;49.440;11.126;2022-12-18T09:46:38;-3.60;88.40
71096;DHT22;58753;49.440;11.126;2022-12-18T09:49:12;-3.55;88.25
71096;DHT22;58753;49.440;11.126;2022-12-18T09:51:44;-3.46;88.13
71096;DHT22;58753;49.440;11.126;2022-12-18T09:54:20;-3.36;87.81
71096;DHT22;58753;49.440;11.126;2022-12-18T09:56:47;-3.28;87.66
71096;DHT22;58753;49.440;11.126;2022-12-18T09:59:30;-3.31;87.36
71096;DHT22;58753;49.440;11.126;2022-12-18T10:01:57;-3.40;86.72
71096;DHT22;58753;49.440;11.126;2022-12-18T10:04:23;-3.47;86.54
71096;DHT22;58753;49.440;11.126;2022-12-18T10:07:03;-3.48;86.30
71096;DHT22;58753;49.440;11.126;2022-12-18T10:09:57;-3.54;86.46
71096;DHT22;58753;49.440;11.126;2022-12-18T10:15:06;-3.51;86.39
71096;DHT22;58753;49.440;11.126;2022-12-18T10:20:13;-3.47;85.99
71096;DHT22;58753;49.440;11.126;2022-12-18T10:25:25;-3.40;85.89
71096;DHT22;58753;49.440;11.126;2022-12-18T10:27:55;-3.44;85.44
71096;DHT22;58753;49.440;11.126;2022-12-18T10:30:22;-3.41;85.48
71096;DHT22;58753;49.440;11.126;2022-12-18T10:32:48;-3.34;85.38
71096;DHT22;58753;49.440;11.126;2022-12-18T10:35:19;-3.24;85.27
71096;DHT22;58753;49.440;11.126;2022-12-18T10:40:30;-3.21;84.43
71096;DHT22;58753;49.440;11.126;2022-12-18T10:43:10;-3.16;84.83
71096;DHT22;58753;49.440;11.126;2022-12-18T10:45:36;-3.06;85.07
71096;DHT22;58753;49.440;11.126;2022-12-18T10:48:03;-3.11;84.13
71096;DHT22;58753;49.440;11.126;2022-12-18T10:50:31;-3.20;83.92
71096;DHT22;58753;49.440;11.126;2022-12-18T10:52:59;-3.31;83.55
71096;DHT22;58753;49.440;11.126;2022-12-18T10:55:37;-3.27;83.80
71096;DHT22;58753;49.440;11.126;2022-12-18T11:01:17;-3.24;83.83
71096;DHT22;58753;49.440;11.126;2022-12-18T11:06:22;-3.18;83.66
71096;DHT22;58753;49.440;11.126;2022-12-18T11:09:19;-2.96;84.24
71096;DHT22;58753;49.440;11.126;2022-12-18T11:11:59;-2.77;83.75
71096;DHT22;58753;49.440;11.126;2022-12-18T11:14:44;-2.61;84.32
71096;DHT22;58753;49.440;11.126;2022-12-18T11:17:25;-1.63;85.69
71096;DHT22;58753;49.440;11.126;2022-12-18T11:19:55;-1.08;83.47
71096;DHT22;58753;49.440;11.126;2022-12-18T11:22:23;0.05;84.59
71096;DHT22;58753;49.440;11.126;2022-12-18T11:25:20;0.66;82.72
71096;DHT22;58753;49.440;11.126;2022-12-18T11:28:05;1.92;82.48
71096;DHT22;58753;49.440;11.126;2022-12-18T11:30:35;2.40;79.86
71096;DHT22;58753;49.440;11.126;2022-12-18T11:33:21;2.98;80.17
71096;DHT22;58753;49.440;11.126;2022-12-18T11:36:07;3.73;78.32
71096;DHT22;58753;49.440;11.126;2022-12-18T11:38:40;4.06;75.81
71096;DHT22;58753;49.440;11.126;2022-12-18T11:44:11;4.29;73.83
71096;DHT22;58753;49.440;11.126;2022-12-18T11:46:46;3.60;69.92
71096;DHT22;58753;49.440;11.126;2022-12-18T11:49:18;2.44;69.23
71096;DHT22;58753;49.440;11.126;2022-12-18T11:52:02;1.92;69.79
71096;DHT22;58753;49.440;11.126;2022-12-18T11:54:28;1.07;68.85
71096;DHT22;58753;49.440;11.126;2022-12-18T12:00:21;0.69;70.19
71096;DHT22;58753;49.440;11.126;2022-12-18T12:06:03;0.26;69.80
71096;DHT22;58753;49.440;11.126;2022-12-18T12:17:45;-0.50;71.57
71096;DHT22;58753;49.440;11.126;2022-12-18T12:20:23;-0.54;72.33
71096;DHT22;58753;49.440;11.126;2022-12-18T12:23:01;-0.50;72.77
71096;DHT22;58753;49.440;11.126;2022-12-18T12:25:37;-0.50;72.47
71096;DHT22;58753;49.440;11.126;2022-12-18T12:33:50;-0.23;73.11
71096;DHT22;58753;49.440;11.126;2022-12-18T12:36:22;-0.09;73.08
71096;DHT22;58753;49.440;11.126;2022-12-18T12:38:55;-0.20;71.79
71096;DHT22;58753;49.440;11.126;2022-12-18T12:41:25;-0.05;72.99
71096;DHT22;58753;49.440;11.126;2022-12-18T12:44:25;0.12;73.01
71096;DHT22;58753;49.440;11.126;2022-12-18T12:46:56;0.15;72.48
71096;DHT22;58753;49.440;11.126;2022-12-18T12:49:26;0.18;72.39
71096;DHT22;58753;49.440;11.126;2022-12-18T12:52:16;0.21;72.06
71096;DHT22;58753;49.440;11.126;2022-12-18T12:54:43;0.15;71.91
71096;DHT22;58753;49.440;11.126;2022-12-18T12:57:27;0.00;71.81
71096;DHT22;58753;49.440;11.126;2022-12-18T13:00:09;-0.11;71.66
71096;DHT22;58753;49.440;11.126;2022-12-18T13:02:50;-0.24;71.47
71096;DHT22;58753;49.440;11.126;2022-12-18T13:07:54;-0.45;71.62
71096;DHT22;58753;49.440;11.126;2022-12-18T13:10:39;-0.58;71.60
71096;DHT22;58753;49.440;11.126;2022-12-18T13:13:15;-0.64;72.01
71096;DHT22;58753;49.440;11.126;2022-12-18T13:15:43;-0.77;72.43
71096;DHT22;58753;49.440;11.126;2022-12-18T13:20:48;-0.85;72.79
71096;DHT22;58753;49.440;11.126;2022-12-18T13:25:57;-0.96;73.25
71096;DHT22;58753;49.440;11.126;2022-12-18T13:30:58;-1.01;73.74
71096;DHT22;58753;49.440;11.126;2022-12-18T13:36:15;-1.22;73.50
71096;DHT22;58753;49.440;11.126;2022-12-18T13:38:42;-1.26;73.97
71096;DHT22;58753;49.440;11.126;2022-12-18T13:43:44;-1.42;74.27
71096;DHT22;58753;49.440;11.126;2022-12-18T13:51:41;-1.49;74.75
71096;DHT22;58753;49.440;11.126;2022-12-18T13:54:19;-1.55;75.09
71096;DHT22;58753;49.440;11.126;2022-12-18T13:56:55;-1.64;74.74
71096;DHT22;58753;49.440;11.126;2022-12-18T13:59:34;-1.71;75.23
71096;DHT22;58753;49.440;11.126;2022-12-18T14:02:09;-1.83;75.43
71096;DHT22;58753;49.440;11.126;2022-12-18T14:04:38;-1.94;75.35
71096;DHT22;58753;49.440;11.126;2022-12-18T14:07:10;-1.97;75.83
71096;DHT22;58753;49.440;11.126;2022-12-18T14:09:42;-2.02;75.96
71096;DHT22;58753;49.440;11.126;2022-12-18T14:12:16;-2.11;76.24
71096;DHT22;58753;49.440;11.126;2022-12-18T14:15:01;-2.15;76.38
71096;DHT22;58753;49.440;11.126;2022-12-18T14:17:27;-2.21;76.51
71096;DHT22;58753;49.440;11.126;2022-12-18T14:19:53;-2.32;76.57
71096;DHT22;58753;49.440;11.126;2022-12-18T14:22:20;-2.37;76.93
71096;DHT22;58753;49.440;11.126;2022-12-18T14:24:47;-2.41;77.12
71096;DHT22;58753;49.440;11.126;2022-12-18T14:27:21;-2.42;77.12
71096;DHT22;58753;49.440;11.126;2022-12-18T14:29:47;-2.45;77.27
71096;DHT22;58753;49.440;11.126;2022-12-18T14:32:20;-2.53;77.40
71096;DHT22;58753;49.440;11.126;2022-12-18T14:34:51;-2.61;77.58
71096;DHT22;58753;49.440;11.126;2022-12-18T14:37:20;-2.66;77.77
71096;DHT22;58753;49.440;11.126;2022-12-18T14:40:00;-2.75;77.85
71096;DHT22;58753;49.440;11.126;2022-12-18T14:42:28;-2.83;77.91
71096;DHT22;58753;49.440;11.126;2022-12-18T14:47:56;-2.99;78.36
71096;DHT22;58753;49.440;11.126;2022-12-18T14:50:22;-3.04;78.46
71096;DHT22;58753;49.440;11.126;2022-12-18T14:52:48;-3.13;78.64
71096;DHT22;58753;49.440;11.126;2022-12-18T14:55:17;-3.21;78.84
71096;DHT22;58753;49.440;11.126;2022-12-18T14:57:43;-3.27;78.95
71096;DHT22;58753;49.440;11.126;2022-12-18T15:00:18;-3.36;79.13
71096;DHT22;58753;49.440;11.126;2022-12-18T15:02:50;-3.44;79.31
71096;DHT22;58753;49.440;11.126;2022-12-18T15:05:29;-3.48;79.52
71096;DHT22;58753;49.440;11.126;2022-12-18T15:07:57;-3.55;79.61
71096;DHT22;58753;49.440;11.126;2022-12-18T15:10:25;-3.60;79.76
71096;DHT22;58753;49.440;11.126;2022-12-18T15:20:56;-3.79;80.43
71096;DHT22;58753;49.440;11.126;2022-12-18T15:25:59;-3.91;80.57
71096;DHT22;58753;49.440;11.126;2022-12-18T15:28:28;-3.96;80.74
71096;DHT22;58753;49.440;11.126;2022-12-18T15:33:27;-4.07;80.92
71096;DHT22;58753;49.440;11.126;2022-12-18T15:35:59;-4.12;81.10
71096;DHT22;58753;49.440;11.126;2022-12-18T15:38:25;-4.14;81.17
71096;DHT22;58753;49.440;11.126;2022-12-18T15:40:50;-4.17;81.26
71096;DHT22;58753;49.440;11.126;2022-12-18T15:43:17;-4.19;81.44
71096;DHT22;58753;49.440;11.126;2022-12-18T15:46:19;-4.23;81.56
71096;DHT22;58753;49.440;11.126;2022-12-18T15:48:46;-4.24;81.68
71096;DHT22;58753;49.440;11.126;2022-12-18T15:51:21;-4.30;81.75
71096;DHT22;58753;49.440;11.126;2022-12-18T15:53:49;-4.32;81.96
71096;DHT22;58753;49.440;11.126;2022-12-18T15:56:15;-4.30;82.28
71096;DHT22;58753;49.440;11.126;2022-12-18T15:59:00;-4.30;82.23
71096;DHT22;58753;49.440;11.126;2022-12-18T16:01:28;-4.32;82.35
71096;DHT22;58753;49.440;11.126;2022-12-18T16:03:54;-4.32;82.43
71096;DHT22;58753;49.440;11.126;2022-12-18T16:06:21;-4.33;82.51
71096;DHT22;58753;49.440;11.126;2022-12-18T16:08:46;-4.36;82.53
71096;DHT22;58753;49.440;11.126;2022-12-18T16:11:24;-4.40;82.62
71096;DHT22;58753;49.440;11.126;2022-12-18T16:14:16;-4.42;82.72
71096;DHT22;58753;49.440;11.126;2022-12-18T16:16:44;-4.42;82.78
71096;DHT22;58753;49.440;11.126;2022-12-18T16:19:09;-4.46;82.90
71096;DHT22;58753;49.440;11.126;2022-12-18T16:21:34;-4.49;82.96
71096;DHT22;58753;49.440;11.126;2022-12-18T16:24:00;-4.50;83.05
71096;DHT22;58753;49.440;11.126;2022-12-18T16:26:25;-4.52;83.17
71096;DHT22;58753;49.440;11.126;2022-12-18T16:28:51;-4.56;83.16
71096;DHT22;58753;49.440;11.126;2022-12-18T16:31:16;-4.58;83.30
71096;DHT22;58753;49.440;11.126;2022-12-18T16:33:41;-4.60;83.46
71096;DHT22;58753;49.440;11.126;2022-12-18T16:36:07;-4.61;83.56
71096;DHT22;58753;49.440;11.126;2022-12-18T16:38:33;-4.58;83.63
71096;DHT22;58753;49.440;11.126;2022-12-18T16:40:58;-4.61;83.63
71096;DHT22;58753;49.440;11.126;2022-12-18T16:43:42;-4.68;83.73
71096;DHT22;58753;49.440;11.126;2022-12-18T16:46:07;-4.66;83.93
71096;DHT22;58753;49.440;11.126;2022-12-18T16:48:33;-4.67;83.90
71096;DHT22;58753;49.440;11.126;2022-12-18T16:51:01;-4.68;83.95
71096;DHT22;58753;49.440;11.126;2022-12-18T16:53:26;-4.73;84.08
71096;DHT22;58753;49.440;11.126;2022-12-18T16:55:55;-4.74;84.23
71096;DHT22;58753;49.440;11.126;2022-12-18T16:58:21;-4.71;84.33
71096;DHT22;58753;49.440;11.126;2022-12-18T17:00:46;-4.76;84.36
71096;DHT22;58753;49.440;11.126;2022-12-18T17:03:12;-4.77;84.43
71096;DHT22;58753;49.440;11.126;2022-12-18T17:05:37;-4.77;84.51
71096;DHT22;58753;49.440;11.126;2022-12-18T17:08:03;-4.83;84.55
71096;DHT22;58753;49.440;11.126;2022-12-18T17:10:29;-4.83;84.71
71096;DHT22;58753;49.440;11.126;2022-12-18T17:12:54;-4.83;84.76
71096;DHT22;58753;49.440;11.126;2022-12-18T17:15:20;-4.83;84.79
71096;DHT22;58753;49.440;11.126;2022-12-18T17:17:45;-4.85;84.90
71096;DHT22;58753;49.440;11.126;2022-12-18T17:20:11;-4.84;84.95